Time;durP1;ratioP1;P1;durP2;ratioP2;P2;SDS_P1;SDS_P2;PMS_P1;PMS_P2;Temp;Humidity;BMP_temperature;BMP_pressure;BME280_temperature;BME280_humidity;BME280_pressure;Samples;Min_cycle;Max_cycle;Signal;HPM_P1;HPM_P2
2022/09/11 00:00:53;;;;;;;20.02;15.80;;;;;;;14.15;100.00;101544.41;5089321;28;20677;-70
2022/09/11 00:03:21;;;;;;;18.13;16.10;;;;;;;14.16;100.00;101549.63;5093311;28;20039;-73
2022/09/11 00:05:46;;;;;;;20.42;15.95;;;;;;;14.21;100.00;101550.81;5090566;28;20119;-70
2022/09/11 00:08:15;;;;;;;18.83;15.02;;;;;;;14.15;100.00;101549.84;5094342;28;20110;-72
2022/09/11 00:10:43;;;;;;;19.67;15.63;;;;;;;14.20;100.00;101551.88;5089361;28;20065;-72
2022/09/11 00:13:11;;;;;;;16.92;13.85;;;;;;;14.16;100.00;101552.34;5093742;28;20024;-73
2022/09/11 00:15:38;;;;;;;15.77;14.00;;;;;;;14.16;100.00;101548.78;5075335;28;20512;-71
2022/09/11 00:18:05;;;;;;;18.55;15.45;;;;;;;14.12;100.00;101548.41;5094106;28;20032;-73
2022/09/11 00:20:32;;;;;;;16.48;14.75;;;;;;;14.08;100.00;101549.09;5073812;28;20039;-73
2022/09/11 00:23:03;;;;;;;17.17;15.10;;;;;;;14.04;100.00;101550.63;5094017;28;20036;-73
2022/09/11 00:25:32;;;;;;;17.13;14.88;;;;;;;14.02;100.00;101541.88;5075033;28;20036;-74
2022/09/11 00:27:58;;;;;;;19.85;13.88;;;;;;;14.02;100.00;101547.31;5075054;28;20044;-70
2022/09/11 00:30:23;;;;;;;19.15;13.93;;;;;;;13.98;100.00;101555.13;5090350;28;20039;-73
2022/09/11 00:32:49;;;;;;;15.52;13.52;;;;;;;13.95;100.00;101556.41;5090733;28;20036;-71
2022/09/11 00:35:14;;;;;;;15.00;13.50;;;;;;;13.99;100.00;101563.06;5092530;28;20061;-71
2022/09/11 00:37:40;;;;;;;16.65;14.32;;;;;;;14.01;100.00;101562.81;5074095;28;20040;-71
2022/09/11 00:40:05;;;;;;;17.05;13.50;;;;;;;13.93;100.00;101561.22;5091055;28;20028;-70
2022/09/11 00:42:31;;;;;;;19.23;15.80;;;;;;;13.90;100.00;101558.16;5091391;28;20107;-73
2022/09/11 00:44:59;;;;;;;15.93;13.98;;;;;;;13.90;100.00;101561.69;5092510;28;20024;-72
2022/09/11 00:47:25;;;;;;;23.75;17.02;;;;;;;13.90;100.00;101567.13;5074269;28;20610;-72
2022/09/11 00:49:55;;;;;;;19.35;15.23;;;;;;;13.83;100.00;101566.41;5092054;28;20040;-73
2022/09/11 00:52:25;;;;;;;19.30;16.45;;;;;;;13.84;100.00;101565.31;5090903;28;20028;-70
2022/09/11 00:54:56;;;;;;;21.13;17.00;;;;;;;13.84;100.00;101562.59;5092679;28;20032;-72
2022/09/11 00:57:25;;;;;;;23.58;17.42;;;;;;;13.90;100.00;101572.56;5093543;28;20043;-71
2022/09/11 00:59:54;;;;;;;22.63;18.05;;;;;;;13.91;100.00;101581.59;5092208;28;20361;-73
2022/09/11 01:02:22;;;;;;;21.02;15.93;;;;;;;13.81;100.00;101574.81;5070294;28;20048;-70
2022/09/11 01:04:49;;;;;;;19.35;16.40;;;;;;;13.78;100.00;101574.41;5089894;28;20123;-71
2022/09/11 01:07:16;;;;;;;21.80;17.58;;;;;;;13.81;100.00;101573.94;5090139;28;20480;-73
2022/09/11 01:09:42;;;;;;;20.75;16.38;;;;;;;13.81;100.00;101582.13;5073768;28;20134;-71
2022/09/11 01:12:12;;;;;;;22.42;17.77;;;;;;;13.82;100.00;101589.22;5091102;28;20099;-73
2022/09/11 01:14:59;;;;;;;19.35;17.25;;;;;;;13.83;100.00;101582.72;5074752;28;20089;-72
2022/09/11 01:17:30;;;;;;;19.60;17.48;;;;;;;13.83;100.00;101589.00;5072905;28;20043;-70
2022/09/11 01:20:18;;;;;;;21.40;16.27;;;;;;;13.83;100.00;101585.44;5060214;28;20024;-73
2022/09/11 01:23:20;;;;;;;19.27;17.15;;;;;;;13.77;100.00;101586.38;5091055;28;20126;-71
2022/09/11 01:26:40;;;;;;;22.38;18.08;;;;;;;13.72;100.00;101586.19;5073867;28;20122;-71
2022/09/11 01:29:21;;;;;;;21.52;17.00;;;;;;;13.70;100.00;101582.91;4992858;28;20066;-70
2022/09/11 01:31:58;;;;;;;20.23;17.20;;;;;;;13.73;100.00;101585.97;5081258;28;20122;-75
2022/09/11 01:34:41;;;;;;;20.55;16.83;;;;;;;13.71;100.00;101584.53;5072976;28;20024;-72
2022/09/11 01:37:13;;;;;;;20.98;17.05;;;;;;;13.67;100.00;101588.78;5089853;28;20024;-71
2022/09/11 01:39:43;;;;;;;;;;;;;;;13.82;100.00;101583.78;5091908;28;20042;-71
2022/09/11 01:42:15;;;;;;;24.55;19.88;;;;;;;13.64;100.00;101593.59;5082018;28;19922;-73
2022/09/11 01:44:48;;;;;;;22.92;18.40;;;;;;;13.68;100.00;101585.00;5072595;28;20035;-73
2022/09/11 01:47:16;;;;;;;21.02;17.83;;;;;;;13.61;100.00;101594.06;5092176;28;20116;-73
2022/09/11 01:49:47;;;;;;;23.05;19.13;;;;;;;13.67;100.00;101594.22;5091639;28;20028;-71
2022/09/11 01:52:18;;;;;;;22.60;18.07;;;;;;;13.58;100.00;101596.41;5090911;28;20034;-71
2022/09/11 01:54:56;;;;;;;20.48;17.50;;;;;;;13.61;100.00;101594.06;5089067;28;20064;-71
2022/09/11 01:57:41;;;;;;;20.40;17.85;;;;;;;13.59;100.00;101590.75;5091636;28;20042;-72
2022/09/11 02:00:10;;;;;;;22.50;18.33;;;;;;;13.56;100.00;101593.94;5072092;28;20085;-71
2022/09/11 02:02:51;;;;;;;19.63;17.52;;;;;;;13.60;100.00;101595.13;5084414;28;20055;-71
2022/09/11 02:05:24;;;;;;;20.52;17.35;;;;;;;13.52;100.00;101591.88;5074410;28;20032;-73
2022/09/11 02:08:07;;;;;;;21.48;17.25;;;;;;;13.56;100.00;101588.47;5073855;28;20028;-71
2022/09/11 02:10:39;;;;;;;22.23;16.92;;;;;;;13.54;100.00;101598.78;5073951;28;20094;-73
2022/09/11 02:13:31;;;;;;;20.02;17.90;;;;;;;13.54;100.00;101601.50;5090772;28;20032;-70
2022/09/11 02:16:10;;;;;;;19.17;17.10;;;;;;;13.53;100.00;101599.81;5092184;28;20032;-71
2022/09/11 02:18:49;;;;;;;19.98;17.02;;;;;;;13.46;100.00;101599.88;5091957;28;20024;-71
2022/09/11 02:21:15;;;;;;;19.17;16.40;;;;;;;13.39;100.00;101603.72;5091048;28;20028;-74
2022/09/11 02:23:41;;;;;;;21.63;17.15;;;;;;;13.40;100.00;101602.69;5092136;28;20029;-72
2022/09/11 02:26:09;;;;;;;23.17;18.30;;;;;;;13.37;100.00;101603.94;5092108;28;20378;-71
2022/09/11 02:28:36;;;;;;;23.35;18.88;;;;;;;13.39;100.00;101609.16;5090972;28;20035;-72
2022/09/11 02:31:02;;;;;;;23.35;18.75;;;;;;;13.34;100.00;101607.13;5074057;28;20032;-72
2022/09/11 02:33:35;;;;;;;22.90;19.80;;;;;;;13.36;100.00;101604.19;5091633;28;20088;-73
2022/09/11 02:36:28;;;;;;;20.92;18.55;;;;;;;13.29;100.00;101602.31;5074142;28;20052;-72
2022/09/11 02:39:05;;;;;;;22.63;19.60;;;;;;;13.29;100.00;101607.75;5091410;28;20040;-72
2022/09/11 02:42:01;;;;;;;22.77;19.10;;;;;;;13.34;100.00;101611.72;5074250;28;20526;-73
2022/09/11 02:44:56;;;;;;;28.48;20.65;;;;;;;13.32;100.00;101614.66;5072279;28;20052;-71
2022/09/11 02:47:36;;;;;;;23.67;18.52;;;;;;;13.25;100.00;101609.25;5094839;28;20059;-71
2022/09/11 02:50:09;;;;;;;28.20;19.65;;;;;;;13.26;100.00;101615.53;5095683;28;20469;-73
2022/09/11 02:52:52;;;;;;;24.70;20.73;;;;;;;13.25;100.00;101613.88;5076954;28;20028;-74
2022/09/11 02:55:43;;;;;;;32.15;20.98;;;;;;;13.22;100.00;101619.75;5096173;28;20169;-71
2022/09/11 02:58:16;;;;;;;46.42;21.63;;;;;;;13.22;100.00;101615.16;5076782;28;20039;-74
2022/09/11 03:00:41;;;;;;;26.23;21.33;;;;;;;13.20;100.00;101611.00;5092185;28;20522;-72
2022/09/11 03:03:07;;;;;;;44.65;20.90;;;;;;;13.20;100.00;101617.25;5076471;28;20032;-73
2022/09/11 03:05:32;;;;;;;40.50;21.48;;;;;;;13.19;100.00;101614.78;5095793;28;20472;-71
2022/09/11 03:07:58;;;;;;;43.75;22.33;;;;;;;13.20;100.00;101628.13;5077137;28;20035;-72
2022/09/11 03:10:26;;;;;;;26.08;22.15;;;;;;;13.22;100.00;101631.44;5076999;28;20469;-73
2022/09/11 03:12:53;;;;;;;31.77;23.30;;;;;;;13.24;100.00;101626.66;5074182;28;20039;-73
2022/09/11 03:15:19;;;;;;;42.78;23.45;;;;;;;13.27;100.00;101633.50;5095401;28;20032;-71
2022/09/11 03:17:45;;;;;;;37.63;24.27;;;;;;;13.30;100.00;101633.06;5095201;28;20034;-72
2022/09/11 03:20:10;;;;;;;48.13;20.92;;;;;;;13.29;100.00;101634.94;5077121;28;20594;-72
2022/09/11 03:22:35;;;;;;;40.15;22.35;;;;;;;13.30;100.00;101623.03;5075948;28;20032;-73
2022/09/11 03:25:00;;;;;;;54.35;22.55;;;;;;;13.31;100.00;101629.28;5095328;28;20028;-71
2022/09/11 03:27:26;;;;;;;97.13;21.83;;;;;;;13.26;100.00;101629.97;5076224;28;20038;-73
2022/09/11 03:29:52;;;;;;;73.13;22.27;;;;;;;13.23;100.00;101627.69;5093553;28;20085;-74
2022/09/11 03:32:17;;;;;;;42.13;19.73;;;;;;;13.20;100.00;101630.03;5093478;28;20461;-71
2022/09/11 03:34:43;;;;;;;58.17;19.30;;;;;;;13.23;100.00;101627.69;5094858;28;20525;-72
2022/09/11 03:37:08;;;;;;;98.57;17.52;;;;;;;13.16;100.00;101626.09;5095021;28;20111;-71
2022/09/11 03:39:33;;;;;;;35.08;18.63;;;;;;;13.19;100.00;101628.38;5094684;28;20024;-71
2022/09/11 03:41:58;;;;;;;42.70;18.40;;;;;;;13.17;100.00;101628.59;5093703;28;20395;-73
2022/09/11 03:44:24;;;;;;;68.47;17.23;;;;;;;13.16;100.00;101637.78;5076628;28;20526;-73
2022/09/11 03:46:51;;;;;;;78.57;16.25;;;;;;;13.10;100.00;101644.13;5093325;28;20549;-71
2022/09/11 03:49:16;;;;;;;122.57;16.65;;;;;;;13.05;100.00;101636.63;5094789;28;20118;-73
2022/09/11 03:51:42;;;;;;;88.63;17.83;;;;;;;13.09;100.00;101637.84;5092897;28;20116;-71
2022/09/11 03:54:07;;;;;;;94.07;17.83;;;;;;;13.09;100.00;101637.03;5076056;28;20131;-72
2022/09/11 03:56:32;;;;;;;94.15;18.92;;;;;;;13.12;100.00;101636.59;5094330;28;20028;-73
2022/09/11 03:59:01;;;;;;;53.13;17.75;;;;;;;13.11;100.00;101629.47;5094641;28;20449;-71
2022/09/11 04:01:28;;;;;;;74.43;16.85;;;;;;;13.04;100.00;101631.41;5089330;28;20040;-73
2022/09/11 04:03:53;;;;;;;63.60;16.58;;;;;;;13.14;100.00;101633.66;5094246;28;20024;-72
2022/09/11 04:06:19;;;;;;;89.38;17.10;;;;;;;13.10;100.00;101631.38;5076129;28;20028;-73
2022/09/11 04:08:45;;;;;;;75.82;16.95;;;;;;;13.08;100.00;101632.66;5094223;28;20047;-72
2022/09/11 04:11:10;;;;;;;70.20;17.25;;;;;;;13.06;100.00;101630.16;5094150;28;20115;-71
2022/09/11 04:13:38;;;;;;;54.50;18.23;;;;;;;13.07;100.00;101628.25;5074501;28;20066;-72
2022/09/11 10:17:52;;;;;;;23.95;21.63;;;;;;;16.86;100.00;101847.47;5113085;23;20315;-65
2022/09/11 10:20:17;;;;;;;24.55;21.92;;;;;;;16.82;100.00;101847.13;4888183;29;20671;-73
2022/09/11 10:22:43;;;;;;;26.67;22.07;;;;;;;16.82;100.00;101842.47;4896662;29;20036;-72
2022/09/11 10:25:13;;;;;;;23.55;21.10;;;;;;;16.80;100.00;101843.78;4897227;29;20325;-72
2022/09/11 10:27:45;;;;;;;23.67;21.20;;;;;;;16.80;100.00;101835.59;4896316;29;20474;-71
2022/09/11 10:30:25;;;;;;;18.75;16.38;;;;;;;16.92;100.00;101832.84;4896888;29;20091;-72
2022/09/11 10:32:51;;;;;;;18.05;16.15;;;;;;;17.04;100.00;101835.53;4897081;29;20108;-73
2022/09/11 10:35:18;;;;;;;19.25;17.25;;;;;;;17.19;100.00;101838.56;4896796;29;20160;-74
2022/09/11 10:37:43;;;;;;;18.55;15.93;;;;;;;17.29;100.00;101841.47;4894667;29;20036;-73
2022/09/11 10:40:20;;;;;;;18.90;15.35;;;;;;;17.38;100.00;101838.34;4897043;29;20056;-71
2022/09/11 10:42:47;;;;;;;16.15;14.25;;;;;;;17.50;100.00;101834.47;4897513;29;20111;-74
2022/09/11 10:45:17;;;;;;;16.15;12.70;;;;;;;17.60;100.00;101835.72;4897907;29;20029;-72
2022/09/11 10:47:44;;;;;;;18.40;15.10;;;;;;;17.67;100.00;101831.72;4895896;29;20132;-74
2022/09/11 10:50:19;;;;;;;17.80;16.00;;;;;;;17.77;100.00;101839.28;4896495;29;20043;-74
2022/09/11 10:52:56;;;;;;;21.95;18.88;;;;;;;17.88;100.00;101849.31;4861346;29;20489;-75
2022/09/11 11:13:05;;;;;;;20.00;17.67;;;;;;;17.85;100.00;101840.78;5127987;23;20058;-72
2022/09/11 11:16:09;;;;;;;17.17;15.15;;;;;;;17.85;100.00;101847.06;4931548;29;20058;-72
2022/09/11 11:19:12;;;;;;;20.65;18.25;;;;;;;17.81;100.00;101842.34;4934497;29;20098;-77
2022/09/11 11:22:15;;;;;;;17.85;14.82;;;;;;;17.77;100.00;101841.19;4916037;29;20060;-77
2022/09/11 11:25:18;;;;;;;16.70;14.85;;;;;;;17.75;100.00;101840.63;4916841;29;20278;-73
2022/09/11 11:28:21;;;;;;;16.17;12.88;;;;;;;17.73;100.00;101840.88;4917897;29;20515;-75
2022/09/11 11:31:24;;;;;;;16.42;13.75;;;;;;;17.82;100.00;101833.06;4950480;28;20518;-74
2022/09/11 11:34:27;;;;;;;15.35;13.43;;;;;;;18.02;100.00;101836.13;4936120;29;20062;-72
2022/09/11 11:37:30;;;;;;;14.85;13.25;;;;;;;18.11;100.00;101843.94;4951371;29;20110;-72
2022/09/11 11:40:35;;;;;;;14.68;12.30;;;;;;;18.07;100.00;101843.59;4934190;29;20142;-75
2022/09/11 11:43:38;;;;;;;13.43;11.73;;;;;;;18.14;100.00;101838.78;4917273;29;20056;-75
2022/09/11 11:46:41;;;;;;;12.57;11.27;;;;;;;18.32;100.00;101826.69;4947696;29;20051;-75
2022/09/11 11:49:44;;;;;;;12.43;11.00;;;;;;;18.55;100.00;101830.28;4953489;29;20047;-73
2022/09/11 11:52:48;;;;;;;14.18;11.50;;;;;;;18.74;100.00;101831.63;4952609;29;20058;-73
2022/09/11 11:55:51;;;;;;;12.80;10.82;;;;;;;18.95;100.00;101816.25;4951526;28;20059;-75
2022/09/11 11:58:54;;;;;;;17.17;12.98;;;;;;;19.09;100.00;101802.13;4950137;28;20040;-74
2022/09/11 12:01:57;;;;;;;16.42;12.85;;;;;;;19.22;100.00;101818.19;4921543;29;20067;-73
2022/09/11 12:05:01;;;;;;;15.05;10.85;;;;;;;19.30;100.00;101812.19;4935995;29;20117;-75
2022/09/11 12:08:04;;;;;;;11.48;10.00;;;;;;;19.46;100.00;101817.81;4952453;29;20048;-74
2022/09/11 12:11:06;;;;;;;11.60;8.85;;;;;;;19.43;100.00;101815.59;4954641;28;20050;-73
2022/09/11 12:14:09;;;;;;;10.45;8.38;;;;;;;19.33;100.00;101819.09;4948972;28;20452;-75
2022/09/11 12:17:12;;;;;;;8.80;7.85;;;;;;;19.38;100.00;101819.13;4949448;28;20051;-71
2022/09/11 12:20:16;;;;;;;12.88;8.23;;;;;;;19.27;100.00;101825.63;4953275;29;20138;-73
2022/09/11 12:23:19;;;;;;;10.75;8.32;;;;;;;19.16;100.00;101812.88;4952827;28;20760;-71
2022/09/11 12:26:27;;;;;;;9.35;6.50;;;;;;;19.06;100.00;101808.13;4949766;28;20055;-73
2022/09/11 12:29:32;;;;;;;9.15;6.53;;;;;;;18.97;100.00;101809.69;4944766;28;20150;-72
2022/09/11 12:32:35;;;;;;;9.05;7.88;;;;;;;18.84;100.00;101802.66;4934734;29;20075;-70
2022/09/11 12:35:38;;;;;;;9.27;6.43;;;;;;;18.78;100.00;101802.59;4933058;29;20051;-72
2022/09/11 12:38:43;;;;;;;5.90;5.20;;;;;;;19.04;100.00;101800.16;4917196;29;20138;-73
2022/09/11 12:41:46;;;;;;;6.85;5.40;;;;;;;19.34;100.00;101796.06;4938277;29;20047;-71
2022/09/11 12:44:49;;;;;;;6.68;5.57;;;;;;;19.29;100.00;101802.34;4949036;29;20039;-73
2022/09/11 12:47:53;;;;;;;7.18;5.03;;;;;;;19.17;100.00;101798.91;4930957;29;20078;-71
2022/09/11 12:50:59;;;;;;;5.65;5.10;;;;;;;19.05;100.00;101790.84;4953370;29;20050;-73
2022/09/11 12:54:02;;;;;;;6.25;4.15;;;;;;;18.96;100.00;101786.91;4953767;29;20113;-71
2022/09/11 12:57:05;;;;;;;8.07;4.70;;;;;;;18.90;100.00;101788.78;4952615;29;20059;-72
2022/09/11 13:00:09;;;;;;;7.30;5.10;;;;;;;19.05;100.00;101781.78;4953700;29;20055;-73
2022/09/11 13:03:12;;;;;;;8.20;5.40;;;;;;;19.36;100.00;101773.84;4932966;29;20055;-72
2022/09/11 13:06:15;;;;;;;8.45;5.53;;;;;;;19.48;100.00;101782.72;4953818;29;20066;-71
2022/09/11 13:09:18;;;;;;;7.75;4.72;;;;;;;19.41;100.00;101779.34;4933394;29;20040;-75
2022/09/11 13:12:21;;;;;;;6.93;4.20;;;;;;;19.49;95.14;101778.91;4934105;29;20082;-71
2022/09/11 13:15:23;;;;;;;5.30;3.92;;;;;;;19.74;96.73;101774.66;4941302;29;20047;-75
2022/09/11 13:18:26;;;;;;;4.40;4.00;;;;;;;19.94;99.52;101772.09;4934354;29;20043;-73
2022/09/11 13:21:29;;;;;;;6.18;4.20;;;;;;;20.09;90.80;101765.00;4933955;29;20055;-77
2022/09/11 13:24:31;;;;;;;4.07;3.40;;;;;;;20.17;77.38;101762.59;4933725;29;20043;-72
2022/09/11 13:27:36;;;;;;;3.80;3.10;;;;;;;20.28;78.12;101757.97;4947906;29;20062;-72
2022/09/11 13:30:39;;;;;;;6.07;4.30;;;;;;;20.40;76.24;101748.66;4952434;29;20067;-72
2022/09/11 13:33:42;;;;;;;4.63;4.10;;;;;;;20.47;75.62;101749.22;4931989;29;20094;-76
2022/09/11 13:36:47;;;;;;;4.75;3.60;;;;;;;20.48;74.50;101751.72;4933505;29;20098;-73
2022/09/11 13:39:50;;;;;;;4.05;3.15;;;;;;;20.65;75.75;101762.53;4950218;29;20094;-72
2022/09/11 13:42:53;;;;;;;3.00;2.70;;;;;;;20.78;75.66;101752.91;4934492;29;20057;-77
2022/09/11 13:45:56;;;;;;;5.68;4.57;;;;;;;20.91;80.17;101743.31;4951241;29;20109;-75
2022/09/11 13:48:59;;;;;;;8.63;5.10;;;;;;;21.10;81.39;101745.53;4934707;29;20055;-73
2022/09/11 13:52:03;;;;;;;11.27;9.60;;;;;;;21.17;83.94;101740.59;4931640;29;20416;-75
2022/09/11 13:55:06;;;;;;;7.75;5.82;;;;;;;21.28;80.27;101728.47;4932064;29;20061;-71
2022/09/11 13:58:31;;;;;;;7.65;5.53;;;;;;;21.36;76.84;101722.41;4932423;29;20084;-71
2022/09/11 14:01:36;;;;;;;8.90;5.78;;;;;;;21.34;76.40;101724.59;4939577;29;20051;-70
2022/09/11 14:04:38;;;;;;;8.25;6.25;;;;;;;21.39;76.28;101727.38;4931940;29;20148;-71
2022/09/11 14:07:41;;;;;;;5.13;4.55;;;;;;;21.45;76.66;101719.91;4924307;29;20416;-70
2022/09/11 14:10:46;;;;;;;7.38;5.18;;;;;;;21.56;76.58;101715.28;4952147;29;20055;-71
2022/09/11 14:13:48;;;;;;;6.93;3.88;;;;;;;21.66;79.06;101714.41;4929370;29;20036;-69
2022/09/11 14:16:51;;;;;;;5.30;3.53;;;;;;;21.72;75.46;101714.09;4948988;29;20050;-70
2022/09/11 14:19:54;;;;;;;6.88;4.10;;;;;;;21.74;73.19;101709.16;4951750;29;20142;-71
2022/09/11 14:22:57;;;;;;;6.78;4.68;;;;;;;21.83;73.20;101719.59;4952195;28;20044;-71
2022/09/11 14:26:00;;;;;;;6.15;3.80;;;;;;;21.88;73.35;101712.13;4941140;29;20066;-70
2022/09/11 14:29:02;;;;;;;5.25;4.60;;;;;;;21.92;73.29;101710.47;4947698;28;20427;-69
2022/09/11 14:32:05;;;;;;;7.03;4.32;;;;;;;22.00;75.11;101719.28;4950910;28;20102;-70
2022/09/11 14:35:08;;;;;;;5.05;4.20;;;;;;;22.06;70.09;101715.41;4956570;28;20077;-70
2022/09/11 14:38:11;;;;;;;8.38;5.43;;;;;;;22.00;69.53;101716.53;4973373;28;20051;-71
2022/09/11 14:41:13;;;;;;;6.07;4.57;;;;;;;21.72;72.29;101718.78;4952994;28;20055;-73
2022/09/11 14:44:16;;;;;;;6.60;4.05;;;;;;;21.48;72.60;101707.53;4917488;29;20052;-71
2022/09/11 14:47:19;;;;;;;7.15;4.22;;;;;;;21.38;74.41;101703.69;4933828;28;20055;-70
2022/09/11 14:50:23;;;;;;;5.20;4.05;;;;;;;21.21;74.92;101714.16;4952879;28;20126;-70
2022/09/11 14:53:26;;;;;;;6.60;3.80;;;;;;;21.13;75.62;101711.97;4949340;28;20583;-71
2022/09/11 14:56:29;;;;;;;5.65;3.70;;;;;;;21.33;73.96;101706.47;4951570;29;20055;-71
2022/09/11 14:59:32;;;;;;;3.80;2.63;;;;;;;21.35;75.31;101707.00;4955143;29;20087;-70
2022/09/11 15:02:35;;;;;;;5.82;3.33;;;;;;;21.47;71.12;101706.72;4952387;28;20146;-70
2022/09/11 15:05:38;;;;;;;4.15;3.13;;;;;;;21.35;70.04;101707.00;4952170;28;20058;-70
2022/09/11 15:08:41;;;;;;;5.85;3.50;;;;;;;21.33;71.51;101708.38;4955137;29;20043;-70
2022/09/11 15:11:44;;;;;;;4.03;3.10;;;;;;;21.21;72.30;101698.47;4952734;29;20051;-69
2022/09/11 15:14:47;;;;;;;3.78;2.97;;;;;;;21.04;75.12;101701.50;4952343;29;20047;-70
2022/09/11 15:17:49;;;;;;;3.92;3.50;;;;;;;21.09;78.15;101689.69;4938442;28;20061;-69
2022/09/11 15:20:52;;;;;;;6.30;3.50;;;;;;;21.46;75.40;101687.72;4957073;28;20397;-70
2022/09/11 15:23:55;;;;;;;5.05;3.22;;;;;;;21.89;70.81;101688.16;4955689;28;20039;-69
2022/09/11 15:26:57;;;;;;;5.07;3.50;;;;;;;22.20;72.39;101690.81;4942629;28;20429;-69
2022/09/11 15:30:00;;;;;;;4.78;3.30;;;;;;;22.30;69.86;101679.72;4940355;29;20055;-70
2022/09/11 15:33:03;;;;;;;5.78;3.35;;;;;;;22.47;68.68;101671.91;4935285;29;20055;-70
2022/09/11 15:36:06;;;;;;;3.75;3.13;;;;;;;22.70;68.28;101677.00;4945389;28;20479;-70
2022/09/11 15:39:09;;;;;;;4.15;2.70;;;;;;;22.93;66.86;101667.16;4952198;28;20051;-71
2022/09/11 15:42:12;;;;;;;5.22;2.50;;;;;;;23.16;66.08;101663.69;4958388;28;20213;-72
